Crumlin, United Kingdom
Current Conditions -  °F | °C
As of 12:50 AM on Thursday 23 Oct 2014 (Local Time) from EGAA Reporting Station
Broken Clouds Broken Clouds  
Wind Chill: 52°   Ceiling: 1700
Heat Index: 52°   Visibility: 6mi
Dew Point: 48°   Wind: 10mph
Humidity: 88%   Direction: 220°SW
Pressure: 29.94"   Gusts: NA
Location:  54.62°N, 6.22°W
Report Text: EGAA 222350Z 22009KT 9999 BKN017 11/09 Q1014
Loading
Personal Weather Stations






























Interactive Weather Map
Tropical Storm Tracking
New forecast layout! Learn more

10-Day Weather Forecast

Advertisements
Track Severe Weather on mobile